Search for airport 
image banner adimage banner adimage banner ad
image banner ad

IA19 - Lucas County Health Center

Located in Chariton, United States

ICAO - IA19, IATA -

Data provided by Airmate  

General information

Coordinates: N41°1'39" W93°18'9"
Elevation is 1049 feet MSL.
Magnetic variation is 03° East
View others Airports in Iowa

Operational data

Special qualification required
Current time UTC:
Current local time:
Weather at : KCNC - Chariton Muni ( 5 km )
METAR: KCNC 181715Z AUTO 21010KT 9SM OVC029 28/24 A2985 RMK AO2
View NOTAMs / SUP AIP / TFR affecting this airport [VIEW]
Communications frequencies: [VIEW]

Runways:

Airport contact information

Address: Chariton United States

Satellite view of IA19